X  Sluiten METAR luchtvaart weer gegevens      LEAL Alicante-Elche Miguel Hernández Airport
Temperatuur
11°C Temperatuur
-4°C Dauwpunt
35% Vochtigheid



Wind
39 KM/U
24 MPH
11 M/S
21 KTS



270°
W
Huidig weer

Helder Helder
Luchtdruk 1017.95 (hPa) - 30.06 (inHg)
Zicht 6 (mijl) - 9.7 (km)
Vliegveld
Vliegveld code LEAL

Locatie : Alicante-Elche Miguel Hernández Airport
Afstand: 60 (km)

Metar:
LEAL 010800Z 27021KT 240V300 CAVOK 11/M04 Q1018 NOSIG

Tijd: 01-03-2024 09:00 CET